sensor_id;sensor_type;location;lat;lon;timestamp;pressure;altitude;pressure_sealevel;temperature;humidity
22862;BME280;11598;50.652;6.172;2023-02-18T00:03:00;97194.31;;;7.30;100.00
22862;BME280;11598;50.652;6.172;2023-02-18T00:13:01;97193.34;;;7.32;100.00
22862;BME280;11598;50.652;6.172;2023-02-18T00:23:02;97200.16;;;7.33;100.00
22862;BME280;11598;50.652;6.172;2023-02-18T00:33:02;97188.22;;;7.31;100.00
22862;BME280;11598;50.652;6.172;2023-02-18T00:43:03;97161.38;;;7.33;100.00
22862;BME280;11598;50.652;6.172;2023-02-18T00:53:03;97153.56;;;7.35;100.00
22862;BME280;11598;50.652;6.172;2023-02-18T01:03:04;97123.47;;;7.34;100.00
22862;BME280;11598;50.652;6.172;2023-02-18T01:13:07;97120.88;;;7.34;100.00
22862;BME280;11598;50.652;6.172;2023-02-18T01:23:08;97109.78;;;7.32;100.00
22862;BME280;11598;50.652;6.172;2023-02-18T01:33:09;97115.84;;;7.31;100.00
22862;BME280;11598;50.652;6.172;2023-02-18T01:43:11;97091.81;;;7.29;100.00
22862;BME280;11598;50.652;6.172;2023-02-18T01:53:14;97086.91;;;7.24;100.00
22862;BME280;11598;50.652;6.172;2023-02-18T02:03:15;97093.81;;;7.24;100.00
22862;BME280;11598;50.652;6.172;2023-02-18T02:45:17;97031.44;;;7.14;100.00
22862;BME280;11598;50.652;6.172;2023-02-18T02:54:51;97021.16;;;7.12;100.00
22862;BME280;11598;50.652;6.172;2023-02-18T03:15:26;97003.47;;;7.05;100.00
22862;BME280;11598;50.652;6.172;2023-02-18T03:25:32;96975.16;;;7.03;100.00
22862;BME280;11598;50.652;6.172;2023-02-18T03:35:35;96963.22;;;7.01;100.00
22862;BME280;11598;50.652;6.172;2023-02-18T03:45:36;96965.91;;;6.99;100.00
22862;BME280;11598;50.652;6.172;2023-02-18T03:55:36;96977.06;;;6.99;100.00
22862;BME280;11598;50.652;6.172;2023-02-18T04:05:37;96962.56;;;6.97;100.00
22862;BME280;11598;50.652;6.172;2023-02-18T04:15:37;96953.22;;;6.94;100.00
22862;BME280;11598;50.652;6.172;2023-02-18T04:25:38;96931.72;;;6.94;100.00
22862;BME280;11598;50.652;6.172;2023-02-18T04:35:38;96928.53;;;6.89;100.00
22862;BME280;11598;50.652;6.172;2023-02-18T04:45:42;96922.69;;;6.85;100.00
22862;BME280;11598;50.652;6.172;2023-02-18T04:55:42;96907.28;;;6.84;100.00
22862;BME280;11598;50.652;6.172;2023-02-18T05:05:43;96909.09;;;6.82;100.00
22862;BME280;11598;50.652;6.172;2023-02-18T05:15:43;96901.44;;;6.80;100.00
22862;BME280;11598;50.652;6.172;2023-02-18T05:25:43;96894.69;;;6.77;100.00
22862;BME280;11598;50.652;6.172;2023-02-18T05:35:44;96900.88;;;6.75;100.00
22862;BME280;11598;50.652;6.172;2023-02-18T05:45:44;96904.50;;;6.71;100.00
22862;BME280;11598;50.652;6.172;2023-02-18T05:55:44;96878.81;;;6.68;100.00
22862;BME280;11598;50.652;6.172;2023-02-18T06:05:48;96872.31;;;6.61;100.00
22862;BME280;11598;50.652;6.172;2023-02-18T06:15:50;96867.56;;;6.53;100.00
22862;BME280;11598;50.652;6.172;2023-02-18T06:25:51;96857.69;;;6.44;100.00
22862;BME280;11598;50.652;6.172;2023-02-18T06:35:53;96844.28;;;6.37;100.00
22862;BME280;11598;50.652;6.172;2023-02-18T06:45:54;96835.94;;;6.32;100.00
22862;BME280;11598;50.652;6.172;2023-02-18T06:55:55;96838.75;;;6.27;100.00
22862;BME280;11598;50.652;6.172;2023-02-18T07:05:55;96824.19;;;6.26;100.00
22862;BME280;11598;50.652;6.172;2023-02-18T07:15:55;96829.66;;;6.20;100.00
22862;BME280;11598;50.652;6.172;2023-02-18T07:26:07;96843.56;;;6.18;100.00
22862;BME280;11598;50.652;6.172;2023-02-18T07:36:08;96844.09;;;6.07;100.00
22862;BME280;11598;50.652;6.172;2023-02-18T07:46:08;96854.25;;;6.10;100.00
22862;BME280;11598;50.652;6.172;2023-02-18T07:56:09;96865.19;;;6.15;100.00
22862;BME280;11598;50.652;6.172;2023-02-18T08:06:20;96888.63;;;6.10;100.00
22862;BME280;11598;50.652;6.172;2023-02-18T08:16:21;96903.72;;;6.01;100.00
22862;BME280;11598;50.652;6.172;2023-02-18T08:26:22;96901.50;;;5.93;100.00
22862;BME280;11598;50.652;6.172;2023-02-18T08:36:22;96907.63;;;5.90;100.00
22862;BME280;11598;50.652;6.172;2023-02-18T08:46:23;96917.19;;;5.88;100.00
22862;BME280;11598;50.652;6.172;2023-02-18T08:56:23;96898.91;;;5.93;100.00
22862;BME280;11598;50.652;6.172;2023-02-18T09:06:23;96919.44;;;5.96;100.00
22862;BME280;11598;50.652;6.172;2023-02-18T09:16:24;96932.09;;;6.01;100.00
22862;BME280;11598;50.652;6.172;2023-02-18T09:26:26;96923.38;;;6.03;100.00
22862;BME280;11598;50.652;6.172;2023-02-18T09:36:27;96912.38;;;6.00;100.00
22862;BME280;11598;50.652;6.172;2023-02-18T09:46:32;96915.69;;;6.02;100.00
22862;BME280;11598;50.652;6.172;2023-02-18T09:56:36;96912.66;;;6.11;100.00
22862;BME280;11598;50.652;6.172;2023-02-18T10:06:37;96900.78;;;6.26;100.00
22862;BME280;11598;50.652;6.172;2023-02-18T10:16:38;96910.47;;;6.38;100.00
22862;BME280;11598;50.652;6.172;2023-02-18T10:26:38;96908.88;;;6.35;100.00
22862;BME280;11598;50.652;6.172;2023-02-18T10:36:44;96914.13;;;6.51;100.00
22862;BME280;11598;50.652;6.172;2023-02-18T10:57:20;96911.78;;;6.47;100.00
22862;BME280;11598;50.652;6.172;2023-02-18T11:07:24;96912.66;;;6.46;100.00
22862;BME280;11598;50.652;6.172;2023-02-18T11:17:29;96916.94;;;6.47;100.00
22862;BME280;11598;50.652;6.172;2023-02-18T11:27:37;96919.75;;;6.42;100.00
22862;BME280;11598;50.652;6.172;2023-02-18T11:37:39;96919.44;;;6.31;100.00
22862;BME280;11598;50.652;6.172;2023-02-18T11:47:39;96920.03;;;6.36;100.00
22862;BME280;11598;50.652;6.172;2023-02-18T11:57:44;96912.13;;;6.39;100.00
22862;BME280;11598;50.652;6.172;2023-02-18T12:07:49;96900.75;;;6.43;100.00
22862;BME280;11598;50.652;6.172;2023-02-18T12:59:46;96903.34;;;6.76;100.00
22862;BME280;11598;50.652;6.172;2023-02-18T13:20:13;96909.03;;;6.83;100.00
22862;BME280;11598;50.652;6.172;2023-02-18T13:31:15;96894.47;;;6.82;100.00
22862;BME280;11598;50.652;6.172;2023-02-18T13:40:56;96898.69;;;6.83;100.00
22862;BME280;11598;50.652;6.172;2023-02-18T13:51:04;96892.47;;;6.87;100.00
22862;BME280;11598;50.652;6.172;2023-02-18T14:01:13;96897.47;;;6.90;100.00
22862;BME280;11598;50.652;6.172;2023-02-18T14:21:20;96886.72;;;6.98;100.00
22862;BME280;11598;50.652;6.172;2023-02-18T14:31:49;96889.63;;;7.08;100.00
22862;BME280;11598;50.652;6.172;2023-02-18T14:51:54;96891.28;;;6.93;100.00
22862;BME280;11598;50.652;6.172;2023-02-18T15:01:56;96889.41;;;6.96;100.00
22862;BME280;11598;50.652;6.172;2023-02-18T15:12:03;96876.31;;;6.99;100.00
22862;BME280;11598;50.652;6.172;2023-02-18T15:22:04;96879.97;;;6.95;100.00
22862;BME280;11598;50.652;6.172;2023-02-18T15:32:27;96865.88;;;6.85;100.00
22862;BME280;11598;50.652;6.172;2023-02-18T15:42:34;96876.44;;;6.81;100.00
22862;BME280;11598;50.652;6.172;2023-02-18T15:52:37;96874.75;;;6.80;100.00
22862;BME280;11598;50.652;6.172;2023-02-18T16:02:51;96880.03;;;6.78;100.00
22862;BME280;11598;50.652;6.172;2023-02-18T16:12:54;96876.88;;;6.73;100.00
22862;BME280;11598;50.652;6.172;2023-02-18T16:23:02;96886.34;;;6.72;100.00
22862;BME280;11598;50.652;6.172;2023-02-18T16:33:03;96878.50;;;6.74;100.00
22862;BME280;11598;50.652;6.172;2023-02-18T16:43:15;96893.25;;;6.72;100.00
22862;BME280;11598;50.652;6.172;2023-02-18T16:53:15;96889.09;;;6.69;100.00
22862;BME280;11598;50.652;6.172;2023-02-18T17:03:15;96898.59;;;6.69;100.00
22862;BME280;11598;50.652;6.172;2023-02-18T17:13:22;96900.34;;;6.68;100.00
22862;BME280;11598;50.652;6.172;2023-02-18T17:23:23;96903.75;;;6.69;100.00
22862;BME280;11598;50.652;6.172;2023-02-18T17:33:24;96902.91;;;6.68;100.00
22862;BME280;11598;50.652;6.172;2023-02-18T17:43:24;96903.75;;;6.69;100.00
22862;BME280;11598;50.652;6.172;2023-02-18T17:53:25;96902.81;;;6.70;100.00
22862;BME280;11598;50.652;6.172;2023-02-18T18:03:25;96889.00;;;6.71;100.00
22862;BME280;11598;50.652;6.172;2023-02-18T18:13:28;96909.56;;;6.72;100.00
22862;BME280;11598;50.652;6.172;2023-02-18T18:23:31;96899.34;;;6.71;100.00
22862;BME280;11598;50.652;6.172;2023-02-18T18:33:34;96907.09;;;6.71;100.00
22862;BME280;11598;50.652;6.172;2023-02-18T18:43:34;96896.66;;;6.72;100.00
22862;BME280;11598;50.652;6.172;2023-02-18T18:53:37;96891.50;;;6.72;100.00
22862;BME280;11598;50.652;6.172;2023-02-18T19:03:38;96891.50;;;6.72;100.00
22862;BME280;11598;50.652;6.172;2023-02-18T19:13:40;96882.09;;;6.71;100.00
22862;BME280;11598;50.652;6.172;2023-02-18T19:23:41;96880.50;;;6.69;100.00
22862;BME280;11598;50.652;6.172;2023-02-18T19:33:41;96856.34;;;6.70;100.00
22862;BME280;11598;50.652;6.172;2023-02-18T19:43:44;96864.09;;;6.70;100.00
22862;BME280;11598;50.652;6.172;2023-02-18T19:53:47;96845.25;;;6.68;100.00
22862;BME280;11598;50.652;6.172;2023-02-18T20:03:48;96847.78;;;6.69;100.00
22862;BME280;11598;50.652;6.172;2023-02-18T20:13:48;96840.03;;;6.69;100.00
22862;BME280;11598;50.652;6.172;2023-02-18T20:23:52;96834.03;;;6.69;100.00
22862;BME280;11598;50.652;6.172;2023-02-18T20:33:55;96820.19;;;6.70;100.00
22862;BME280;11598;50.652;6.172;2023-02-18T20:43:59;96809.88;;;6.70;100.00
22862;BME280;11598;50.652;6.172;2023-02-18T20:54:04;96810.72;;;6.70;100.00
22862;BME280;11598;50.652;6.172;2023-02-18T21:04:10;96791.78;;;6.70;100.00
22862;BME280;11598;50.652;6.172;2023-02-18T21:14:11;96791.91;;;6.68;100.00
22862;BME280;11598;50.652;6.172;2023-02-18T21:24:11;96786.72;;;6.68;100.00
22862;BME280;11598;50.652;6.172;2023-02-18T21:34:13;96782.41;;;6.69;100.00
22862;BME280;11598;50.652;6.172;2023-02-18T21:44:14;96775.53;;;6.68;100.00
22862;BME280;11598;50.652;6.172;2023-02-18T21:54:16;96784.22;;;6.67;100.00
22862;BME280;11598;50.652;6.172;2023-02-18T22:04:17;96778.06;;;6.69;100.00
22862;BME280;11598;50.652;6.172;2023-02-18T22:14:18;96770.31;;;6.69;100.00
22862;BME280;11598;50.652;6.172;2023-02-18T22:24:18;96783.97;;;6.71;100.00
22862;BME280;11598;50.652;6.172;2023-02-18T22:34:19;96778.81;;;6.71;100.00
22862;BME280;11598;50.652;6.172;2023-02-18T22:44:20;96756.31;;;6.73;100.00
22862;BME280;11598;50.652;6.172;2023-02-18T22:54:22;96735.75;;;6.72;100.00
22862;BME280;11598;50.652;6.172;2023-02-18T23:04:22;96767.66;;;6.71;100.00
22862;BME280;11598;50.652;6.172;2023-02-18T23:14:24;96758.09;;;6.73;100.00
22862;BME280;11598;50.652;6.172;2023-02-18T23:24:27;96772.72;;;6.72;100.00
22862;BME280;11598;50.652;6.172;2023-02-18T23:34:27;96783.91;;;6.73;100.00
22862;BME280;11598;50.652;6.172;2023-02-18T23:44:28;96768.41;;;6.73;100.00
22862;BME280;11598;50.652;6.172;2023-02-18T23:54:28;96757.09;;;6.75;100.00
